sensor_id;sensor_type;location;lat;lon;timestamp;temperature;humidity
12043;DHT22;6082;49.306;12.862;2023-11-19T00:00:27;3.50;99.90
12043;DHT22;6082;49.306;12.862;2023-11-19T00:02:53;3.50;99.90
12043;DHT22;6082;49.306;12.862;2023-11-19T00:05:19;3.50;99.90
12043;DHT22;6082;49.306;12.862;2023-11-19T00:07:45;3.40;99.90
12043;DHT22;6082;49.306;12.862;2023-11-19T00:10:12;3.40;99.90
12043;DHT22;6082;49.306;12.862;2023-11-19T00:12:43;3.30;99.90
12043;DHT22;6082;49.306;12.862;2023-11-19T00:15:10;3.30;99.90
12043;DHT22;6082;49.306;12.862;2023-11-19T00:17:39;3.30;99.90
12043;DHT22;6082;49.306;12.862;2023-11-19T00:20:06;3.30;99.90
12043;DHT22;6082;49.306;12.862;2023-11-19T00:22:33;3.20;99.90
12043;DHT22;6082;49.306;12.862;2023-11-19T00:24:59;3.30;99.90
12043;DHT22;6082;49.306;12.862;2023-11-19T00:27:25;3.20;99.90
12043;DHT22;6082;49.306;12.862;2023-11-19T00:29:51;3.20;99.90
12043;DHT22;6082;49.306;12.862;2023-11-19T00:32:17;3.30;99.90
12043;DHT22;6082;49.306;12.862;2023-11-19T00:34:46;3.30;99.90
12043;DHT22;6082;49.306;12.862;2023-11-19T00:37:16;3.30;99.90
12043;DHT22;6082;49.306;12.862;2023-11-19T00:39:42;3.30;99.90
12043;DHT22;6082;49.306;12.862;2023-11-19T00:42:09;3.30;99.90
12043;DHT22;6082;49.306;12.862;2023-11-19T00:44:39;3.30;99.90
12043;DHT22;6082;49.306;12.862;2023-11-19T00:47:05;3.30;99.90
12043;DHT22;6082;49.306;12.862;2023-11-19T00:49:31;3.30;99.90
12043;DHT22;6082;49.306;12.862;2023-11-19T00:52:00;3.30;99.90
12043;DHT22;6082;49.306;12.862;2023-11-19T00:54:27;3.30;99.90
12043;DHT22;6082;49.306;12.862;2023-11-19T00:56:53;3.30;99.90
12043;DHT22;6082;49.306;12.862;2023-11-19T00:59:19;3.40;99.90
12043;DHT22;6082;49.306;12.862;2023-11-19T01:01:45;3.30;99.90
12043;DHT22;6082;49.306;12.862;2023-11-19T01:04:10;3.40;99.90
12043;DHT22;6082;49.306;12.862;2023-11-19T01:06:36;3.40;99.90
12043;DHT22;6082;49.306;12.862;2023-11-19T01:09:02;3.40;99.90
12043;DHT22;6082;49.306;12.862;2023-11-19T01:11:28;3.40;99.90
12043;DHT22;6082;49.306;12.862;2023-11-19T01:13:54;3.40;99.90
12043;DHT22;6082;49.306;12.862;2023-11-19T01:16:19;3.40;99.90
12043;DHT22;6082;49.306;12.862;2023-11-19T01:18:49;3.40;99.90
12043;DHT22;6082;49.306;12.862;2023-11-19T01:21:15;3.40;99.90
12043;DHT22;6082;49.306;12.862;2023-11-19T01:23:42;3.40;99.90
12043;DHT22;6082;49.306;12.862;2023-11-19T01:26:09;3.50;99.90
12043;DHT22;6082;49.306;12.862;2023-11-19T01:28:36;3.50;99.90
12043;DHT22;6082;49.306;12.862;2023-11-19T01:31:02;3.50;99.90
12043;DHT22;6082;49.306;12.862;2023-11-19T01:33:29;3.50;99.90
12043;DHT22;6082;49.306;12.862;2023-11-19T01:35:55;3.50;99.90
12043;DHT22;6082;49.306;12.862;2023-11-19T01:38:22;3.50;99.90
12043;DHT22;6082;49.306;12.862;2023-11-19T01:40:48;3.50;99.90
12043;DHT22;6082;49.306;12.862;2023-11-19T01:43:31;3.50;99.90
12043;DHT22;6082;49.306;12.862;2023-11-19T01:45:58;3.50;99.90
12043;DHT22;6082;49.306;12.862;2023-11-19T01:48:24;3.50;99.90
12043;DHT22;6082;49.306;12.862;2023-11-19T01:50:50;3.60;99.90
12043;DHT22;6082;49.306;12.862;2023-11-19T01:53:18;3.50;99.90
12043;DHT22;6082;49.306;12.862;2023-11-19T01:55:45;3.60;99.90
12043;DHT22;6082;49.306;12.862;2023-11-19T01:58:12;3.60;99.90
12043;DHT22;6082;49.306;12.862;2023-11-19T02:00:38;3.60;99.90
12043;DHT22;6082;49.306;12.862;2023-11-19T02:03:06;3.60;99.90
12043;DHT22;6082;49.306;12.862;2023-11-19T02:05:34;3.60;99.90
12043;DHT22;6082;49.306;12.862;2023-11-19T02:08:00;3.60;99.90
12043;DHT22;6082;49.306;12.862;2023-11-19T02:10:26;3.60;99.90
12043;DHT22;6082;49.306;12.862;2023-11-19T02:12:52;3.70;99.90
12043;DHT22;6082;49.306;12.862;2023-11-19T02:15:18;3.70;99.90
12043;DHT22;6082;49.306;12.862;2023-11-19T02:17:50;3.70;99.90
12043;DHT22;6082;49.306;12.862;2023-11-19T02:20:16;3.70;99.90
12043;DHT22;6082;49.306;12.862;2023-11-19T02:22:43;3.70;99.90
12043;DHT22;6082;49.306;12.862;2023-11-19T02:25:18;3.70;99.90
12043;DHT22;6082;49.306;12.862;2023-11-19T02:27:59;3.70;99.90
12043;DHT22;6082;49.306;12.862;2023-11-19T02:30:26;3.70;99.90
12043;DHT22;6082;49.306;12.862;2023-11-19T02:32:58;3.70;99.90
12043;DHT22;6082;49.306;12.862;2023-11-19T02:35:27;3.70;99.90
12043;DHT22;6082;49.306;12.862;2023-11-19T02:37:54;3.80;99.90
12043;DHT22;6082;49.306;12.862;2023-11-19T02:40:20;3.70;99.90
12043;DHT22;6082;49.306;12.862;2023-11-19T02:42:49;3.80;99.90
12043;DHT22;6082;49.306;12.862;2023-11-19T02:45:15;3.70;99.90
12043;DHT22;6082;49.306;12.862;2023-11-19T02:47:41;3.80;99.90
12043;DHT22;6082;49.306;12.862;2023-11-19T02:50:13;3.80;99.90
12043;DHT22;6082;49.306;12.862;2023-11-19T02:52:42;3.80;99.90
12043;DHT22;6082;49.306;12.862;2023-11-19T02:55:09;3.80;99.90
12043;DHT22;6082;49.306;12.862;2023-11-19T02:57:40;3.80;99.90
12043;DHT22;6082;49.306;12.862;2023-11-19T03:00:17;3.80;99.90
12043;DHT22;6082;49.306;12.862;2023-11-19T03:02:46;3.80;99.90
12043;DHT22;6082;49.306;12.862;2023-11-19T03:05:14;3.80;99.90
12043;DHT22;6082;49.306;12.862;2023-11-19T03:07:43;3.80;99.90
12043;DHT22;6082;49.306;12.862;2023-11-19T03:10:10;3.80;99.90
12043;DHT22;6082;49.306;12.862;2023-11-19T03:12:40;3.80;99.90
12043;DHT22;6082;49.306;12.862;2023-11-19T03:15:06;3.80;99.90
12043;DHT22;6082;49.306;12.862;2023-11-19T03:17:33;3.80;99.90
12043;DHT22;6082;49.306;12.862;2023-11-19T03:20:00;3.90;99.90
12043;DHT22;6082;49.306;12.862;2023-11-19T03:22:26;3.90;99.90
12043;DHT22;6082;49.306;12.862;2023-11-19T03:24:52;3.90;99.90
12043;DHT22;6082;49.306;12.862;2023-11-19T03:27:18;3.90;99.90
12043;DHT22;6082;49.306;12.862;2023-11-19T03:29:43;3.90;99.90
12043;DHT22;6082;49.306;12.862;2023-11-19T03:32:09;3.90;99.90
12043;DHT22;6082;49.306;12.862;2023-11-19T03:34:35;3.90;99.90
12043;DHT22;6082;49.306;12.862;2023-11-19T03:37:00;3.90;99.90
12043;DHT22;6082;49.306;12.862;2023-11-19T03:39:26;3.90;99.90
12043;DHT22;6082;49.306;12.862;2023-11-19T03:41:52;3.90;99.90
12043;DHT22;6082;49.306;12.862;2023-11-19T03:44:18;3.90;99.90
12043;DHT22;6082;49.306;12.862;2023-11-19T03:46:44;3.90;99.90
12043;DHT22;6082;49.306;12.862;2023-11-19T03:49:11;3.90;99.90
12043;DHT22;6082;49.306;12.862;2023-11-19T03:51:37;3.90;99.90
12043;DHT22;6082;49.306;12.862;2023-11-19T03:54:03;4.00;99.90
12043;DHT22;6082;49.306;12.862;2023-11-19T03:56:29;3.90;99.90
12043;DHT22;6082;49.306;12.862;2023-11-19T03:58:56;4.00;99.90
12043;DHT22;6082;49.306;12.862;2023-11-19T04:01:22;3.90;99.90
12043;DHT22;6082;49.306;12.862;2023-11-19T04:03:47;3.90;99.90
12043;DHT22;6082;49.306;12.862;2023-11-19T04:06:13;3.90;99.90
12043;DHT22;6082;49.306;12.862;2023-11-19T04:08:39;3.90;99.90
12043;DHT22;6082;49.306;12.862;2023-11-19T04:11:05;4.00;99.90
12043;DHT22;6082;49.306;12.862;2023-11-19T04:13:31;4.00;99.90
12043;DHT22;6082;49.306;12.862;2023-11-19T04:16:00;4.00;99.90
12043;DHT22;6082;49.306;12.862;2023-11-19T04:18:26;4.00;99.90
12043;DHT22;6082;49.306;12.862;2023-11-19T04:20:52;4.00;99.90
12043;DHT22;6082;49.306;12.862;2023-11-19T04:23:18;4.00;99.90
12043;DHT22;6082;49.306;12.862;2023-11-19T04:25:44;3.90;99.90
12043;DHT22;6082;49.306;12.862;2023-11-19T04:28:09;3.90;99.90
12043;DHT22;6082;49.306;12.862;2023-11-19T04:30:35;3.90;99.90
12043;DHT22;6082;49.306;12.862;2023-11-19T04:33:01;4.00;99.90
12043;DHT22;6082;49.306;12.862;2023-11-19T04:35:27;4.00;99.90
12043;DHT22;6082;49.306;12.862;2023-11-19T04:37:52;4.00;99.90
12043;DHT22;6082;49.306;12.862;2023-11-19T04:40:18;4.00;99.90
12043;DHT22;6082;49.306;12.862;2023-11-19T04:42:44;4.00;99.90
12043;DHT22;6082;49.306;12.862;2023-11-19T04:45:09;4.00;99.90
12043;DHT22;6082;49.306;12.862;2023-11-19T04:47:36;4.00;99.90
12043;DHT22;6082;49.306;12.862;2023-11-19T04:50:02;4.00;99.90
12043;DHT22;6082;49.306;12.862;2023-11-19T04:52:29;4.10;99.90
12043;DHT22;6082;49.306;12.862;2023-11-19T04:54:54;4.00;99.90
12043;DHT22;6082;49.306;12.862;2023-11-19T04:57:20;4.00;99.90
12043;DHT22;6082;49.306;12.862;2023-11-19T04:59:46;4.10;99.90
12043;DHT22;6082;49.306;12.862;2023-11-19T05:02:11;4.10;99.90
12043;DHT22;6082;49.306;12.862;2023-11-19T05:04:42;4.10;99.90
12043;DHT22;6082;49.306;12.862;2023-11-19T05:07:09;4.10;99.90
12043;DHT22;6082;49.306;12.862;2023-11-19T05:09:35;4.10;99.90
12043;DHT22;6082;49.306;12.862;2023-11-19T05:12:01;4.10;99.90
12043;DHT22;6082;49.306;12.862;2023-11-19T05:14:27;4.10;99.90
12043;DHT22;6082;49.306;12.862;2023-11-19T05:16:53;4.10;99.90
12043;DHT22;6082;49.306;12.862;2023-11-19T05:19:19;4.10;99.90
12043;DHT22;6082;49.306;12.862;2023-11-19T05:21:44;4.10;99.90
12043;DHT22;6082;49.306;12.862;2023-11-19T05:24:10;4.10;99.90
12043;DHT22;6082;49.306;12.862;2023-11-19T05:26:37;4.20;99.90
12043;DHT22;6082;49.306;12.862;2023-11-19T05:29:03;4.20;99.90
12043;DHT22;6082;49.306;12.862;2023-11-19T05:31:30;4.20;99.90
12043;DHT22;6082;49.306;12.862;2023-11-19T05:33:55;4.20;99.90
12043;DHT22;6082;49.306;12.862;2023-11-19T05:36:21;4.20;99.90
12043;DHT22;6082;49.306;12.862;2023-11-19T05:38:47;4.30;99.90
12043;DHT22;6082;49.306;12.862;2023-11-19T05:41:13;4.30;99.90
12043;DHT22;6082;49.306;12.862;2023-11-19T05:43:39;4.30;99.90
12043;DHT22;6082;49.306;12.862;2023-11-19T05:46:06;4.30;99.90
12043;DHT22;6082;49.306;12.862;2023-11-19T05:48:32;4.20;99.90
12043;DHT22;6082;49.306;12.862;2023-11-19T05:50:58;4.30;99.90
12043;DHT22;6082;49.306;12.862;2023-11-19T05:53:24;4.30;99.90
12043;DHT22;6082;49.306;12.862;2023-11-19T05:55:50;4.30;99.90
12043;DHT22;6082;49.306;12.862;2023-11-19T05:58:26;4.30;99.90
12043;DHT22;6082;49.306;12.862;2023-11-19T06:00:54;4.20;99.90
12043;DHT22;6082;49.306;12.862;2023-11-19T06:03:20;4.20;99.90
12043;DHT22;6082;49.306;12.862;2023-11-19T06:05:47;4.20;99.90
12043;DHT22;6082;49.306;12.862;2023-11-19T06:08:14;4.20;99.90
12043;DHT22;6082;49.306;12.862;2023-11-19T06:10:43;4.20;99.90
12043;DHT22;6082;49.306;12.862;2023-11-19T06:13:11;4.20;99.90
12043;DHT22;6082;49.306;12.862;2023-11-19T06:15:38;4.20;99.90
12043;DHT22;6082;49.306;12.862;2023-11-19T06:18:03;4.30;99.90
12043;DHT22;6082;49.306;12.862;2023-11-19T06:20:33;4.30;99.90
12043;DHT22;6082;49.306;12.862;2023-11-19T06:22:59;4.30;99.90
12043;DHT22;6082;49.306;12.862;2023-11-19T06:25:26;4.30;99.90
12043;DHT22;6082;49.306;12.862;2023-11-19T06:27:52;4.30;99.90
12043;DHT22;6082;49.306;12.862;2023-11-19T06:30:18;4.30;99.90
12043;DHT22;6082;49.306;12.862;2023-11-19T06:32:44;4.30;99.90
12043;DHT22;6082;49.306;12.862;2023-11-19T06:35:10;4.30;99.90
12043;DHT22;6082;49.306;12.862;2023-11-19T06:37:38;4.30;99.90
12043;DHT22;6082;49.306;12.862;2023-11-19T06:40:05;4.40;99.90
12043;DHT22;6082;49.306;12.862;2023-11-19T06:42:31;4.40;99.90
12043;DHT22;6082;49.306;12.862;2023-11-19T06:44:57;4.40;99.90
12043;DHT22;6082;49.306;12.862;2023-11-19T06:47:26;4.40;99.90
12043;DHT22;6082;49.306;12.862;2023-11-19T06:49:52;4.40;99.90
12043;DHT22;6082;49.306;12.862;2023-11-19T06:52:18;4.40;99.90
12043;DHT22;6082;49.306;12.862;2023-11-19T06:54:44;4.40;99.90
12043;DHT22;6082;49.306;12.862;2023-11-19T06:57:13;4.40;99.90
12043;DHT22;6082;49.306;12.862;2023-11-19T06:59:39;4.40;99.90
12043;DHT22;6082;49.306;12.862;2023-11-19T07:02:06;4.50;99.90
12043;DHT22;6082;49.306;12.862;2023-11-19T07:04:32;4.50;99.90
12043;DHT22;6082;49.306;12.862;2023-11-19T07:06:59;4.50;99.90
12043;DHT22;6082;49.306;12.862;2023-11-19T07:09:27;4.50;99.90
12043;DHT22;6082;49.306;12.862;2023-11-19T07:11:53;4.50;99.90
12043;DHT22;6082;49.306;12.862;2023-11-19T07:14:19;4.60;99.90
12043;DHT22;6082;49.306;12.862;2023-11-19T07:16:45;4.60;99.90
12043;DHT22;6082;49.306;12.862;2023-11-19T07:19:11;4.60;99.90
12043;DHT22;6082;49.306;12.862;2023-11-19T07:21:40;4.60;99.90
12043;DHT22;6082;49.306;12.862;2023-11-19T07:24:10;4.60;99.90
12043;DHT22;6082;49.306;12.862;2023-11-19T07:26:39;4.60;99.90
12043;DHT22;6082;49.306;12.862;2023-11-19T07:29:06;4.60;99.90
12043;DHT22;6082;49.306;12.862;2023-11-19T07:31:33;4.70;99.90
12043;DHT22;6082;49.306;12.862;2023-11-19T07:33:58;4.70;99.90
12043;DHT22;6082;49.306;12.862;2023-11-19T07:36:24;4.70;99.90
12043;DHT22;6082;49.306;12.862;2023-11-19T07:38:50;4.70;99.90
12043;DHT22;6082;49.306;12.862;2023-11-19T07:41:16;4.80;99.90
12043;DHT22;6082;49.306;12.862;2023-11-19T07:43:43;4.80;99.90
12043;DHT22;6082;49.306;12.862;2023-11-19T07:46:13;4.80;99.90
12043;DHT22;6082;49.306;12.862;2023-11-19T07:48:39;4.80;99.90
12043;DHT22;6082;49.306;12.862;2023-11-19T07:51:05;4.80;99.90
12043;DHT22;6082;49.306;12.862;2023-11-19T07:53:31;4.80;99.90
12043;DHT22;6082;49.306;12.862;2023-11-19T07:55:58;4.80;99.90
12043;DHT22;6082;49.306;12.862;2023-11-19T07:58:25;4.90;99.90
12043;DHT22;6082;49.306;12.862;2023-11-19T08:00:51;4.90;99.90
12043;DHT22;6082;49.306;12.862;2023-11-19T08:03:18;4.90;99.90
12043;DHT22;6082;49.306;12.862;2023-11-19T08:05:47;4.90;99.90
12043;DHT22;6082;49.306;12.862;2023-11-19T08:08:13;5.00;99.90
12043;DHT22;6082;49.306;12.862;2023-11-19T08:10:40;5.00;99.90
12043;DHT22;6082;49.306;12.862;2023-11-19T08:13:06;5.00;99.90
12043;DHT22;6082;49.306;12.862;2023-11-19T08:15:33;5.10;99.90
12043;DHT22;6082;49.306;12.862;2023-11-19T08:17:58;5.10;99.90
12043;DHT22;6082;49.306;12.862;2023-11-19T08:20:24;5.10;99.90
12043;DHT22;6082;49.306;12.862;2023-11-19T08:22:50;5.10;99.90
12043;DHT22;6082;49.306;12.862;2023-11-19T08:25:16;5.10;99.90
12043;DHT22;6082;49.306;12.862;2023-11-19T08:27:41;5.10;99.90
12043;DHT22;6082;49.306;12.862;2023-11-19T08:30:08;5.10;99.90
12043;DHT22;6082;49.306;12.862;2023-11-19T08:32:34;5.10;99.90
12043;DHT22;6082;49.306;12.862;2023-11-19T08:35:01;5.20;99.90
12043;DHT22;6082;49.306;12.862;2023-11-19T08:37:26;5.20;99.90
12043;DHT22;6082;49.306;12.862;2023-11-19T08:39:52;5.30;99.90
12043;DHT22;6082;49.306;12.862;2023-11-19T08:42:19;5.30;99.90
12043;DHT22;6082;49.306;12.862;2023-11-19T08:44:49;5.30;99.90
12043;DHT22;6082;49.306;12.862;2023-11-19T08:47:16;5.40;99.90
12043;DHT22;6082;49.306;12.862;2023-11-19T08:49:44;5.40;99.90
12043;DHT22;6082;49.306;12.862;2023-11-19T08:52:10;5.40;99.90
12043;DHT22;6082;49.306;12.862;2023-11-19T08:54:36;5.40;99.90
12043;DHT22;6082;49.306;12.862;2023-11-19T08:57:03;5.50;99.90
12043;DHT22;6082;49.306;12.862;2023-11-19T08:59:29;5.50;99.90
12043;DHT22;6082;49.306;12.862;2023-11-19T09:01:55;5.50;99.90
12043;DHT22;6082;49.306;12.862;2023-11-19T09:04:21;5.50;99.90
12043;DHT22;6082;49.306;12.862;2023-11-19T09:06:49;5.60;99.90
12043;DHT22;6082;49.306;12.862;2023-11-19T09:09:15;5.60;99.90
12043;DHT22;6082;49.306;12.862;2023-11-19T09:11:41;5.70;99.90
12043;DHT22;6082;49.306;12.862;2023-11-19T09:14:06;5.70;99.90
12043;DHT22;6082;49.306;12.862;2023-11-19T09:16:32;5.70;99.90
12043;DHT22;6082;49.306;12.862;2023-11-19T09:18:58;5.70;99.90
12043;DHT22;6082;49.306;12.862;2023-11-19T09:21:26;5.70;99.90
12043;DHT22;6082;49.306;12.862;2023-11-19T09:23:51;5.70;99.90
12043;DHT22;6082;49.306;12.862;2023-11-19T09:26:19;5.70;99.90
12043;DHT22;6082;49.306;12.862;2023-11-19T09:28:45;5.80;99.90
12043;DHT22;6082;49.306;12.862;2023-11-19T09:31:17;5.80;99.90
12043;DHT22;6082;49.306;12.862;2023-11-19T09:33:44;5.80;99.90
12043;DHT22;6082;49.306;12.862;2023-11-19T09:36:12;5.80;99.90
12043;DHT22;6082;49.306;12.862;2023-11-19T09:38:39;5.80;99.90
12043;DHT22;6082;49.306;12.862;2023-11-19T09:41:05;5.80;99.90
12043;DHT22;6082;49.306;12.862;2023-11-19T09:43:35;5.90;99.90
12043;DHT22;6082;49.306;12.862;2023-11-19T09:46:05;5.90;99.90
12043;DHT22;6082;49.306;12.862;2023-11-19T09:48:35;5.90;99.90
12043;DHT22;6082;49.306;12.862;2023-11-19T09:51:02;5.90;99.90
12043;DHT22;6082;49.306;12.862;2023-11-19T09:53:30;6.00;99.90
12043;DHT22;6082;49.306;12.862;2023-11-19T09:55:56;6.00;99.90
12043;DHT22;6082;49.306;12.862;2023-11-19T09:58:22;6.00;99.90
12043;DHT22;6082;49.306;12.862;2023-11-19T10:00:49;6.10;99.90
12043;DHT22;6082;49.306;12.862;2023-11-19T10:03:15;6.10;99.90
12043;DHT22;6082;49.306;12.862;2023-11-19T10:05:41;6.20;99.90
12043;DHT22;6082;49.306;12.862;2023-11-19T10:08:07;6.20;99.90
12043;DHT22;6082;49.306;12.862;2023-11-19T10:10:37;6.30;99.90
12043;DHT22;6082;49.306;12.862;2023-11-19T10:13:03;6.30;99.90
12043;DHT22;6082;49.306;12.862;2023-11-19T10:15:35;6.30;99.90
12043;DHT22;6082;49.306;12.862;2023-11-19T10:18:02;6.40;99.90
12043;DHT22;6082;49.306;12.862;2023-11-19T10:20:39;6.40;99.90
12043;DHT22;6082;49.306;12.862;2023-11-19T10:23:06;6.40;99.90
12043;DHT22;6082;49.306;12.862;2023-11-19T10:25:33;6.50;99.90
12043;DHT22;6082;49.306;12.862;2023-11-19T10:27:59;6.50;99.90
12043;DHT22;6082;49.306;12.862;2023-11-19T10:30:30;6.50;99.90
12043;DHT22;6082;49.306;12.862;2023-11-19T10:33:12;6.60;99.90
12043;DHT22;6082;49.306;12.862;2023-11-19T10:38:18;6.60;99.90
12043;DHT22;6082;49.306;12.862;2023-11-19T10:40:44;6.60;99.90
12043;DHT22;6082;49.306;12.862;2023-11-19T10:43:10;6.60;99.90
12043;DHT22;6082;49.306;12.862;2023-11-19T10:45:37;6.60;99.90
12043;DHT22;6082;49.306;12.862;2023-11-19T10:48:04;6.70;99.90
12043;DHT22;6082;49.306;12.862;2023-11-19T10:53:00;6.70;99.90
12043;DHT22;6082;49.306;12.862;2023-11-19T10:55:33;6.70;99.90
12043;DHT22;6082;49.306;12.862;2023-11-19T10:58:07;6.70;99.90
12043;DHT22;6082;49.306;12.862;2023-11-19T11:00:55;6.70;99.90
12043;DHT22;6082;49.306;12.862;2023-11-19T11:03:24;6.70;99.90
12043;DHT22;6082;49.306;12.862;2023-11-19T11:05:52;6.80;99.90
12043;DHT22;6082;49.306;12.862;2023-11-19T11:08:19;6.80;99.90
12043;DHT22;6082;49.306;12.862;2023-11-19T11:10:48;6.80;99.90
12043;DHT22;6082;49.306;12.862;2023-11-19T11:13:17;6.80;99.90
12043;DHT22;6082;49.306;12.862;2023-11-19T11:15:44;6.80;99.90
12043;DHT22;6082;49.306;12.862;2023-11-19T11:18:13;6.80;99.90
12043;DHT22;6082;49.306;12.862;2023-11-19T11:20:39;6.90;99.90
12043;DHT22;6082;49.306;12.862;2023-11-19T11:36:23;7.20;99.90
12043;DHT22;6082;49.306;12.862;2023-11-19T11:38:50;7.20;99.90
12043;DHT22;6082;49.306;12.862;2023-11-19T11:41:23;7.20;99.90
12043;DHT22;6082;49.306;12.862;2023-11-19T11:43:52;7.20;99.90
12043;DHT22;6082;49.306;12.862;2023-11-19T11:49:07;7.30;99.90
12043;DHT22;6082;49.306;12.862;2023-11-19T11:54:25;7.40;99.90
12043;DHT22;6082;49.306;12.862;2023-11-19T11:57:07;7.40;99.90
12043;DHT22;6082;49.306;12.862;2023-11-19T11:59:42;7.40;99.90
12043;DHT22;6082;49.306;12.862;2023-11-19T12:02:09;7.50;99.90
12043;DHT22;6082;49.306;12.862;2023-11-19T12:04:36;7.60;99.90
12043;DHT22;6082;49.306;12.862;2023-11-19T12:07:06;7.70;99.90
12043;DHT22;6082;49.306;12.862;2023-11-19T12:09:32;7.70;99.90
12043;DHT22;6082;49.306;12.862;2023-11-19T12:12:17;7.70;99.90
12043;DHT22;6082;49.306;12.862;2023-11-19T12:20:00;7.90;99.90
12043;DHT22;6082;49.306;12.862;2023-11-19T12:22:26;8.00;99.90
12043;DHT22;6082;49.306;12.862;2023-11-19T12:24:55;8.00;99.90
12043;DHT22;6082;49.306;12.862;2023-11-19T12:27:23;8.00;99.90
12043;DHT22;6082;49.306;12.862;2023-11-19T12:29:49;8.00;99.90
12043;DHT22;6082;49.306;12.862;2023-11-19T12:32:15;8.10;99.90
12043;DHT22;6082;49.306;12.862;2023-11-19T12:34:40;8.10;99.90
12043;DHT22;6082;49.306;12.862;2023-11-19T12:37:06;8.20;99.90
12043;DHT22;6082;49.306;12.862;2023-11-19T12:39:34;8.20;99.90
12043;DHT22;6082;49.306;12.862;2023-11-19T12:41:59;8.20;99.90
12043;DHT22;6082;49.306;12.862;2023-11-19T12:44:25;8.30;99.90
12043;DHT22;6082;49.306;12.862;2023-11-19T12:47:07;8.40;99.90
12043;DHT22;6082;49.306;12.862;2023-11-19T12:49:33;8.40;99.90
12043;DHT22;6082;49.306;12.862;2023-11-19T12:51:59;8.60;99.90
12043;DHT22;6082;49.306;12.862;2023-11-19T12:54:37;8.70;99.90
12043;DHT22;6082;49.306;12.862;2023-11-19T12:57:04;8.80;99.90
12043;DHT22;6082;49.306;12.862;2023-11-19T12:59:31;9.00;99.90
12043;DHT22;6082;49.306;12.862;2023-11-19T13:02:00;9.10;99.90
12043;DHT22;6082;49.306;12.862;2023-11-19T13:04:30;9.20;99.90
12043;DHT22;6082;49.306;12.862;2023-11-19T13:06:59;9.40;99.90
12043;DHT22;6082;49.306;12.862;2023-11-19T13:09:28;9.50;99.90
12043;DHT22;6082;49.306;12.862;2023-11-19T13:11:55;9.50;99.90
12043;DHT22;6082;49.306;12.862;2023-11-19T13:14:22;9.60;99.90
12043;DHT22;6082;49.306;12.862;2023-11-19T13:16:48;9.60;99.90
12043;DHT22;6082;49.306;12.862;2023-11-19T13:19:15;9.70;99.90
12043;DHT22;6082;49.306;12.862;2023-11-19T13:21:45;9.80;99.90
12043;DHT22;6082;49.306;12.862;2023-11-19T13:24:14;9.80;99.90
12043;DHT22;6082;49.306;12.862;2023-11-19T13:26:40;9.80;99.90
12043;DHT22;6082;49.306;12.862;2023-11-19T13:29:05;9.90;99.90
12043;DHT22;6082;49.306;12.862;2023-11-19T13:31:31;9.90;99.90
12043;DHT22;6082;49.306;12.862;2023-11-19T13:33:57;10.00;99.90
12043;DHT22;6082;49.306;12.862;2023-11-19T13:36:24;10.10;99.90
12043;DHT22;6082;49.306;12.862;2023-11-19T13:38:50;10.10;99.90
12043;DHT22;6082;49.306;12.862;2023-11-19T13:41:16;10.10;99.90
12043;DHT22;6082;49.306;12.862;2023-11-19T13:43:42;10.10;99.90
12043;DHT22;6082;49.306;12.862;2023-11-19T13:46:08;10.10;99.90
12043;DHT22;6082;49.306;12.862;2023-11-19T13:48:37;10.10;99.90
12043;DHT22;6082;49.306;12.862;2023-11-19T13:51:02;10.10;99.90
12043;DHT22;6082;49.306;12.862;2023-11-19T13:53:28;10.20;99.90
12043;DHT22;6082;49.306;12.862;2023-11-19T13:55:54;10.20;99.90
12043;DHT22;6082;49.306;12.862;2023-11-19T13:58:19;10.30;99.90
12043;DHT22;6082;49.306;12.862;2023-11-19T14:00:45;10.30;99.90
12043;DHT22;6082;49.306;12.862;2023-11-19T14:03:11;10.30;99.90
12043;DHT22;6082;49.306;12.862;2023-11-19T14:05:37;10.30;99.90
12043;DHT22;6082;49.306;12.862;2023-11-19T14:08:04;10.30;99.90
12043;DHT22;6082;49.306;12.862;2023-11-19T14:10:37;10.30;99.90
12043;DHT22;6082;49.306;12.862;2023-11-19T14:13:04;10.30;99.90
12043;DHT22;6082;49.306;12.862;2023-11-19T14:15:30;10.40;99.90
12043;DHT22;6082;49.306;12.862;2023-11-19T14:17:56;10.40;99.90
12043;DHT22;6082;49.306;12.862;2023-11-19T14:20:21;10.40;99.90
12043;DHT22;6082;49.306;12.862;2023-11-19T14:22:47;10.40;99.90
12043;DHT22;6082;49.306;12.862;2023-11-19T14:25:16;10.40;99.90
12043;DHT22;6082;49.306;12.862;2023-11-19T14:27:42;10.40;99.90
12043;DHT22;6082;49.306;12.862;2023-11-19T14:30:10;10.30;99.90
12043;DHT22;6082;49.306;12.862;2023-11-19T14:32:40;10.40;99.90
12043;DHT22;6082;49.306;12.862;2023-11-19T14:35:08;10.40;99.90
12043;DHT22;6082;49.306;12.862;2023-11-19T14:37:33;10.50;99.90
12043;DHT22;6082;49.306;12.862;2023-11-19T14:40:00;10.50;99.90
12043;DHT22;6082;49.306;12.862;2023-11-19T14:42:27;10.60;99.90
12043;DHT22;6082;49.306;12.862;2023-11-19T14:44:53;10.60;99.90
12043;DHT22;6082;49.306;12.862;2023-11-19T14:47:19;10.60;99.90
12043;DHT22;6082;49.306;12.862;2023-11-19T14:49:45;10.50;99.90
12043;DHT22;6082;49.306;12.862;2023-11-19T14:52:11;10.60;99.90
12043;DHT22;6082;49.306;12.862;2023-11-19T14:54:37;10.60;99.90
12043;DHT22;6082;49.306;12.862;2023-11-19T14:57:06;10.50;99.90
12043;DHT22;6082;49.306;12.862;2023-11-19T14:59:36;10.60;99.90
12043;DHT22;6082;49.306;12.862;2023-11-19T15:02:02;10.50;99.90
12043;DHT22;6082;49.306;12.862;2023-11-19T15:04:28;10.50;99.90
12043;DHT22;6082;49.306;12.862;2023-11-19T15:06:57;10.50;99.90
12043;DHT22;6082;49.306;12.862;2023-11-19T15:09:23;10.50;99.90
12043;DHT22;6082;49.306;12.862;2023-11-19T15:11:50;10.40;99.90
12043;DHT22;6082;49.306;12.862;2023-11-19T15:14:16;10.40;99.90
12043;DHT22;6082;49.306;12.862;2023-11-19T15:16:44;10.40;99.90
12043;DHT22;6082;49.306;12.862;2023-11-19T15:19:11;10.30;99.90
12043;DHT22;6082;49.306;12.862;2023-11-19T15:21:38;10.30;99.90
12043;DHT22;6082;49.306;12.862;2023-11-19T15:24:04;10.30;99.90
12043;DHT22;6082;49.306;12.862;2023-11-19T15:26:30;10.30;99.90
12043;DHT22;6082;49.306;12.862;2023-11-19T15:28:56;10.30;99.90
12043;DHT22;6082;49.306;12.862;2023-11-19T15:31:23;10.30;99.90
12043;DHT22;6082;49.306;12.862;2023-11-19T15:33:49;10.30;99.90
12043;DHT22;6082;49.306;12.862;2023-11-19T15:36:14;10.30;99.90
12043;DHT22;6082;49.306;12.862;2023-11-19T15:38:40;10.30;99.90
12043;DHT22;6082;49.306;12.862;2023-11-19T15:41:06;10.30;99.90
12043;DHT22;6082;49.306;12.862;2023-11-19T15:43:33;10.40;99.90
12043;DHT22;6082;49.306;12.862;2023-11-19T15:45:59;10.40;99.90
12043;DHT22;6082;49.306;12.862;2023-11-19T15:48:25;10.40;99.90
12043;DHT22;6082;49.306;12.862;2023-11-19T15:50:51;10.40;99.90
12043;DHT22;6082;49.306;12.862;2023-11-19T15:53:18;10.40;99.90
12043;DHT22;6082;49.306;12.862;2023-11-19T15:55:44;10.40;99.90
12043;DHT22;6082;49.306;12.862;2023-11-19T15:58:11;10.40;99.90
12043;DHT22;6082;49.306;12.862;2023-11-19T16:00:36;10.40;99.90
12043;DHT22;6082;49.306;12.862;2023-11-19T16:03:02;10.40;99.90
12043;DHT22;6082;49.306;12.862;2023-11-19T16:05:28;10.40;99.90
12043;DHT22;6082;49.306;12.862;2023-11-19T16:07:54;10.30;99.90
12043;DHT22;6082;49.306;12.862;2023-11-19T16:10:19;10.30;99.90